createdAt,value
2023-05-04T00:00:42.249Z,8.70
2023-05-04T00:03:29.754Z,8.70
2023-05-04T00:06:17.588Z,8.60
2023-05-04T00:09:05.419Z,8.50
2023-05-04T00:11:52.760Z,8.50
2023-05-04T00:14:40.044Z,8.50
2023-05-04T00:17:29.554Z,8.50
2023-05-04T00:20:17.437Z,8.50
2023-05-04T00:23:04.661Z,8.50
2023-05-04T00:25:52.798Z,8.50
2023-05-04T00:28:40.786Z,8.50
2023-05-04T00:31:28.963Z,8.40
2023-05-04T00:34:18.452Z,8.50
2023-05-04T00:37:07.307Z,8.40
2023-05-04T00:39:54.492Z,8.40
2023-05-04T00:42:42.732Z,8.40
2023-05-04T00:45:31.108Z,8.40
2023-05-04T00:48:18.300Z,8.40
2023-05-04T00:51:08.850Z,8.40
2023-05-04T00:53:57.241Z,8.40
2023-05-04T00:56:45.816Z,8.40
2023-05-04T00:59:33.255Z,8.40
2023-05-04T01:02:21.754Z,8.40
2023-05-04T01:05:10.261Z,8.30
2023-05-04T01:08:06.837Z,8.30
2023-05-04T01:10:58.069Z,8.40
2023-05-04T01:13:47.568Z,8.30
2023-05-04T01:16:35.376Z,8.40
2023-05-04T01:19:23.156Z,8.30
2023-05-04T01:22:12.244Z,8.30
2023-05-04T01:25:00.057Z,8.30
2023-05-04T01:27:54.075Z,8.20
2023-05-04T01:30:45.190Z,8.20
2023-05-04T01:33:32.561Z,8.10
2023-05-04T01:36:22.003Z,8.10
2023-05-04T01:39:10.594Z,8.20
2023-05-04T01:41:59.592Z,8.20
2023-05-04T01:44:46.996Z,8.10
2023-05-04T01:47:35.337Z,8.10
2023-05-04T01:50:23.048Z,8.10
2023-05-04T01:53:10.786Z,8.10
2023-05-04T01:55:59.330Z,8.10
2023-05-04T01:58:47.422Z,8.00
2023-05-04T02:01:34.605Z,8.00
2023-05-04T02:04:24.353Z,8.00
2023-05-04T02:07:11.585Z,7.90
2023-05-04T02:09:59.743Z,7.90
2023-05-04T02:12:48.338Z,7.90
2023-05-04T02:15:36.551Z,8.00
2023-05-04T02:18:23.790Z,7.90
2023-05-04T02:21:11.415Z,7.80
2023-05-04T02:23:59.261Z,7.80
2023-05-04T02:26:47.411Z,7.80
2023-05-04T02:29:37.547Z,7.80
2023-05-04T02:32:26.607Z,7.70
2023-05-04T02:35:14.332Z,7.70
2023-05-04T02:38:02.455Z,7.70
2023-05-04T02:40:49.685Z,7.60
2023-05-04T02:43:38.635Z,7.60
2023-05-04T02:46:27.240Z,7.60
2023-05-04T02:49:15.346Z,7.50
2023-05-04T02:52:02.652Z,7.50
2023-05-04T02:54:53.029Z,7.50
2023-05-04T02:57:40.984Z,7.40
2023-05-04T03:00:29.101Z,7.40
2023-05-04T03:03:17.666Z,7.40
2023-05-04T03:06:05.993Z,7.40
2023-05-04T03:08:53.710Z,7.40
2023-05-04T03:11:41.058Z,7.30
2023-05-04T03:14:29.260Z,7.30
2023-05-04T03:17:16.594Z,7.30
2023-05-04T03:20:08.366Z,7.20
2023-05-04T03:22:55.983Z,7.20
2023-05-04T03:25:45.546Z,7.20
2023-05-04T03:28:32.994Z,7.10
2023-05-04T03:31:21.206Z,7.10
2023-05-04T03:34:12.778Z,7.00
2023-05-04T03:37:02.291Z,7.00
2023-05-04T03:39:49.471Z,7.00
2023-05-04T03:42:38.628Z,6.90
2023-05-04T03:45:28.987Z,6.90
2023-05-04T03:48:18.162Z,6.90
2023-05-04T03:51:06.504Z,6.80
2023-05-04T03:53:55.030Z,6.80
2023-05-04T03:56:43.168Z,6.80
2023-05-04T03:59:30.936Z,6.70
2023-05-04T04:02:18.851Z,6.70
2023-05-04T04:05:07.381Z,6.70
2023-05-04T04:07:56.830Z,6.70
2023-05-04T04:10:45.749Z,6.70
2023-05-04T04:13:34.004Z,6.60
2023-05-04T04:16:21.805Z,6.70
2023-05-04T04:19:08.949Z,6.60
2023-05-04T04:21:59.439Z,6.60
2023-05-04T04:24:46.717Z,6.60
2023-05-04T04:27:37.015Z,6.60
2023-05-04T04:30:24.159Z,6.70
2023-05-04T04:33:12.477Z,6.70
2023-05-04T04:36:00.151Z,6.60
2023-05-04T04:38:48.119Z,6.70
2023-05-04T04:41:35.326Z,6.70
2023-05-04T04:44:24.470Z,6.70
2023-05-04T04:47:11.659Z,6.70
2023-05-04T04:49:59.843Z,6.70
2023-05-04T04:52:47.553Z,6.70
2023-05-04T04:55:35.317Z,6.70
2023-05-04T04:58:23.085Z,6.80
2023-05-04T05:01:18.148Z,6.80
2023-05-04T05:04:06.191Z,6.90
2023-05-04T05:06:54.803Z,7.10
2023-05-04T05:09:42.889Z,7.10
2023-05-04T05:12:31.492Z,7.30
2023-05-04T05:15:19.234Z,7.30
2023-05-04T05:18:07.897Z,7.40
2023-05-04T05:20:56.956Z,7.40
2023-05-04T05:23:44.074Z,7.60
2023-05-04T05:26:31.999Z,8.10
2023-05-04T05:29:19.170Z,9.20
2023-05-04T05:32:07.809Z,10.40
2023-05-04T05:34:56.782Z,11.40
2023-05-04T05:37:43.982Z,12.00
2023-05-04T05:40:31.475Z,12.80
2023-05-04T05:43:19.284Z,12.80
2023-05-04T05:46:07.265Z,12.80
2023-05-04T05:48:54.435Z,12.40
2023-05-04T05:51:43.549Z,12.90
2023-05-04T05:54:33.973Z,12.70
2023-05-04T05:57:21.262Z,13.00
2023-05-04T06:00:09.456Z,13.50
2023-05-04T06:03:00.815Z,13.80
2023-05-04T06:05:48.049Z,13.50
2023-05-04T06:08:37.811Z,12.90
2023-05-04T06:11:25.272Z,12.70
2023-05-04T06:14:12.943Z,13.00
2023-05-04T06:17:00.222Z,13.30
2023-05-04T06:19:50.839Z,13.60
2023-05-04T06:22:38.689Z,13.30
2023-05-04T06:25:27.265Z,13.20
2023-05-04T06:28:15.333Z,13.60
2023-05-04T06:31:03.033Z,14.10
2023-05-04T06:33:50.696Z,14.20
2023-05-04T06:36:37.943Z,14.10
2023-05-04T06:39:26.152Z,14.60
2023-05-04T06:42:14.696Z,15.00
2023-05-04T06:45:03.821Z,15.60
2023-05-04T06:47:52.420Z,15.80
2023-05-04T06:50:41.518Z,15.80
2023-05-04T06:53:29.327Z,15.80
2023-05-04T06:56:17.029Z,16.20
2023-05-04T06:59:05.988Z,16.00
2023-05-04T07:01:53.269Z,16.20
2023-05-04T07:04:40.408Z,16.40
2023-05-04T07:07:28.362Z,16.50
2023-05-04T07:10:15.787Z,16.60
2023-05-04T07:13:04.132Z,16.50
2023-05-04T07:15:53.136Z,17.00
2023-05-04T07:18:40.507Z,17.20
2023-05-04T07:21:29.451Z,16.80
2023-05-04T07:24:16.962Z,16.50
2023-05-04T07:27:04.651Z,16.80
2023-05-04T07:29:52.687Z,17.00
2023-05-04T07:32:42.172Z,16.80
2023-05-04T07:35:30.128Z,16.90
2023-05-04T07:38:17.282Z,16.60
2023-05-04T07:41:05.510Z,17.20
2023-05-04T07:43:52.677Z,17.60
2023-05-04T07:46:41.475Z,17.60
2023-05-04T07:49:30.233Z,18.00
2023-05-04T07:52:18.273Z,18.30
2023-05-04T07:55:07.027Z,18.30
2023-05-04T07:57:54.701Z,18.40
2023-05-04T08:00:41.953Z,18.10
2023-05-04T08:03:31.138Z,17.90
2023-05-04T08:06:19.646Z,18.10
2023-05-04T08:09:06.950Z,18.40
2023-05-04T08:11:54.925Z,18.40
2023-05-04T08:14:42.199Z,18.70
2023-05-04T08:17:29.703Z,18.80
2023-05-04T08:20:17.961Z,19.30
2023-05-04T08:23:07.262Z,19.30
2023-05-04T08:25:55.119Z,18.90
2023-05-04T08:28:42.639Z,18.70
2023-05-04T08:31:30.274Z,18.90
2023-05-04T08:34:17.582Z,18.50
2023-05-04T08:37:05.409Z,19.00
2023-05-04T08:39:53.910Z,19.20
2023-05-04T08:42:44.710Z,19.30
2023-05-04T08:45:33.269Z,19.30
2023-05-04T08:48:21.359Z,19.90
2023-05-04T08:51:09.226Z,20.10
2023-05-04T08:53:58.024Z,20.10
2023-05-04T08:56:48.379Z,20.50
2023-05-04T08:59:37.277Z,20.40
2023-05-04T09:02:25.411Z,20.90
2023-05-04T09:05:13.722Z,20.70
2023-05-04T09:08:01.181Z,20.30
2023-05-04T09:10:49.319Z,19.80
2023-05-04T09:13:38.636Z,19.70
2023-05-04T09:16:35.961Z,19.10
2023-05-04T09:19:23.029Z,19.60
2023-05-04T09:22:18.194Z,20.30
2023-05-04T09:25:10.837Z,19.90
2023-05-04T09:27:58.243Z,19.90
2023-05-04T09:30:49.400Z,19.80
2023-05-04T09:33:37.086Z,20.50
2023-05-04T09:36:25.543Z,21.10
2023-05-04T09:39:13.501Z,21.00
2023-05-04T09:42:02.354Z,21.10
2023-05-04T09:45:03.105Z,21.30
2023-05-04T09:47:54.681Z,21.00
2023-05-04T09:50:48.867Z,21.20
2023-05-04T09:53:41.083Z,21.20
2023-05-04T09:56:37.617Z,21.40
2023-05-04T09:59:30.880Z,21.70
2023-05-04T10:02:23.084Z,21.40
2023-05-04T10:05:16.468Z,20.80
2023-05-04T10:08:04.580Z,20.50
2023-05-04T10:10:53.476Z,20.50
2023-05-04T10:13:40.836Z,20.60
2023-05-04T10:16:36.764Z,20.70
2023-05-04T10:19:40.324Z,20.60
2023-05-04T10:22:49.701Z,21.20
2023-05-04T10:26:09.870Z,21.30
2023-05-04T10:29:11.194Z,21.00
2023-05-04T10:32:00.092Z,21.10
2023-05-04T10:34:47.930Z,22.00
2023-05-04T10:37:40.574Z,22.00
2023-05-04T10:40:36.577Z,21.80
2023-05-04T10:43:25.087Z,22.10
2023-05-04T10:46:19.412Z,22.30
2023-05-04T10:49:16.656Z,22.80
2023-05-04T10:52:08.797Z,22.40
2023-05-04T10:55:03.164Z,22.90
2023-05-04T10:57:51.765Z,21.90
2023-05-04T11:00:41.695Z,21.60
2023-05-04T11:03:39.229Z,22.10
2023-05-04T11:06:27.920Z,22.50
2023-05-04T11:09:15.766Z,22.80
2023-05-04T11:12:05.903Z,22.90
2023-05-04T11:15:04.651Z,22.50
2023-05-04T11:17:52.748Z,23.20
2023-05-04T11:20:41.874Z,23.80
2023-05-04T11:23:29.569Z,23.70
2023-05-04T11:26:18.766Z,23.70
2023-05-04T11:29:14.336Z,23.90
2023-05-04T11:32:01.765Z,23.80
2023-05-04T11:34:49.975Z,23.50
2023-05-04T11:37:40.684Z,23.60
2023-05-04T11:40:28.729Z,23.50
2023-05-04T11:43:17.407Z,23.40
2023-05-04T11:46:08.174Z,23.50
2023-05-04T11:48:55.937Z,23.40
2023-05-04T11:51:43.092Z,24.00
2023-05-04T11:54:31.357Z,24.00
2023-05-04T11:57:23.084Z,23.60
2023-05-04T12:00:12.736Z,23.90
2023-05-04T12:03:01.491Z,23.80
2023-05-04T12:05:50.537Z,23.80
2023-05-04T12:08:42.318Z,24.00
2023-05-04T12:11:30.720Z,23.60
2023-05-04T12:14:18.871Z,23.30
2023-05-04T12:17:06.900Z,23.70
2023-05-04T12:19:56.667Z,23.60
2023-05-04T12:22:44.736Z,23.70
2023-05-04T12:25:31.972Z,23.90
2023-05-04T12:28:20.929Z,23.90
2023-05-04T12:31:08.357Z,24.00
2023-05-04T12:33:56.051Z,24.10
2023-05-04T12:36:44.969Z,23.90
2023-05-04T12:39:34.170Z,23.70
2023-05-04T12:42:21.497Z,23.30
2023-05-04T12:45:10.680Z,23.20
2023-05-04T12:47:57.918Z,23.50
2023-05-04T12:50:46.407Z,23.70
2023-05-04T12:53:35.157Z,24.00
2023-05-04T12:56:23.221Z,24.20
2023-05-04T12:59:11.153Z,24.60
2023-05-04T13:01:59.205Z,24.70
2023-05-04T13:04:46.366Z,24.60
2023-05-04T13:07:35.247Z,24.20
2023-05-04T13:10:25.423Z,24.40
2023-05-04T13:13:13.916Z,24.20
2023-05-04T13:16:01.739Z,24.40
2023-05-04T13:18:48.963Z,24.50
2023-05-04T13:21:36.595Z,24.00
2023-05-04T13:24:24.267Z,23.50
2023-05-04T13:27:12.756Z,24.10
2023-05-04T13:30:03.536Z,24.70
2023-05-04T13:32:51.694Z,24.90
2023-05-04T13:35:38.795Z,24.70
2023-05-04T13:38:26.990Z,24.60
2023-05-04T13:41:14.848Z,24.70
2023-05-04T13:44:03.874Z,24.40
2023-05-04T13:46:51.528Z,24.00
2023-05-04T13:49:39.540Z,23.60
2023-05-04T13:52:27.420Z,23.60
2023-05-04T13:55:16.579Z,24.10
2023-05-04T13:58:04.505Z,24.30
2023-05-04T14:00:56.171Z,23.90
2023-05-04T14:03:45.414Z,24.00
2023-05-04T14:06:32.912Z,24.00
2023-05-04T14:09:21.027Z,23.60
2023-05-04T14:12:08.730Z,23.00
2023-05-04T14:14:57.669Z,22.80
2023-05-04T14:17:46.178Z,22.90
2023-05-04T14:20:33.857Z,23.10
2023-05-04T14:23:20.978Z,22.90
2023-05-04T14:26:09.026Z,22.70
2023-05-04T14:28:57.236Z,22.40
2023-05-04T14:31:44.432Z,22.20
2023-05-04T14:34:33.960Z,22.30
2023-05-04T14:37:21.164Z,22.70
2023-05-04T14:40:11.342Z,23.10
2023-05-04T14:43:00.908Z,23.00
2023-05-04T14:45:48.925Z,23.10
2023-05-04T14:48:36.623Z,23.00
2023-05-04T14:51:30.421Z,23.00
2023-05-04T14:54:18.076Z,22.90
2023-05-04T14:57:07.130Z,22.70
2023-05-04T14:59:55.167Z,22.70
2023-05-04T15:02:42.907Z,22.70
2023-05-04T15:05:30.002Z,22.90
2023-05-04T15:08:18.955Z,22.90
2023-05-04T15:11:06.616Z,22.90
2023-05-04T15:13:56.367Z,23.00
2023-05-04T15:16:43.973Z,22.90
2023-05-04T15:19:31.662Z,22.60
2023-05-04T15:22:18.892Z,22.40
2023-05-04T15:25:08.532Z,22.30
2023-05-04T15:27:56.247Z,22.40
2023-05-04T15:30:43.964Z,22.40
2023-05-04T15:33:32.146Z,22.20
2023-05-04T15:36:19.359Z,21.90
2023-05-04T15:39:08.712Z,21.80
2023-05-04T15:41:57.280Z,21.90
2023-05-04T15:44:46.104Z,22.00
2023-05-04T15:47:33.335Z,21.90
2023-05-04T15:50:21.372Z,21.80
2023-05-04T15:53:08.498Z,21.80
2023-05-04T15:55:56.524Z,21.70
2023-05-04T15:58:45.540Z,21.80
2023-05-04T16:01:34.190Z,22.00
2023-05-04T16:04:21.382Z,21.90
2023-05-04T16:07:08.976Z,21.80
2023-05-04T16:09:56.599Z,21.70
2023-05-04T16:12:44.630Z,21.60
2023-05-04T16:15:33.260Z,21.60
2023-05-04T16:18:20.615Z,21.60
2023-05-04T16:21:08.922Z,21.50
2023-05-04T16:23:56.155Z,21.40
2023-05-04T16:26:44.499Z,21.30
2023-05-04T16:29:31.825Z,21.20
2023-05-04T16:32:21.669Z,21.20
2023-05-04T16:35:09.419Z,21.10
2023-05-04T16:37:57.155Z,21.10
2023-05-04T16:40:44.445Z,21.00
2023-05-04T16:43:31.997Z,20.60
2023-05-04T16:46:19.166Z,20.50
2023-05-04T16:49:10.093Z,20.40
2023-05-04T16:51:58.140Z,20.40
2023-05-04T16:54:45.733Z,20.20
2023-05-04T16:57:32.889Z,20.10
2023-05-04T17:00:20.845Z,20.00
2023-05-04T17:03:08.166Z,19.90
2023-05-04T17:05:58.022Z,19.90
2023-05-04T17:08:45.330Z,19.70
2023-05-04T17:11:33.460Z,19.50
2023-05-04T17:14:20.714Z,19.50
2023-05-04T17:17:08.839Z,19.30
2023-05-04T17:19:56.083Z,19.40
2023-05-04T17:22:45.670Z,19.40
2023-05-04T17:25:33.978Z,19.20
2023-05-04T17:28:21.977Z,19.10
2023-05-04T17:31:11.363Z,19.00
2023-05-04T17:33:59.385Z,18.90
2023-05-04T17:36:46.535Z,18.80
2023-05-04T17:39:36.105Z,18.70
2023-05-04T17:42:23.296Z,18.70
2023-05-04T17:45:12.211Z,18.70
2023-05-04T17:47:59.712Z,18.60
2023-05-04T17:50:47.240Z,18.50
2023-05-04T17:53:34.444Z,18.40
2023-05-04T17:56:23.519Z,18.30
2023-05-04T17:59:11.252Z,18.20
2023-05-04T18:01:58.513Z,18.10
2023-05-04T18:04:45.687Z,18.00
2023-05-04T18:07:33.724Z,17.90
2023-05-04T18:10:21.456Z,17.90
2023-05-04T18:13:10.966Z,17.70
2023-05-04T18:15:58.154Z,17.60
2023-05-04T18:18:46.442Z,17.60
2023-05-04T18:21:35.380Z,17.50
2023-05-04T18:24:23.420Z,17.40
2023-05-04T18:27:10.564Z,17.30
2023-05-04T18:30:00.145Z,17.20
2023-05-04T18:32:47.278Z,17.10
2023-05-04T18:35:35.533Z,17.00
2023-05-04T18:38:23.303Z,17.00
2023-05-04T18:41:11.812Z,16.90
2023-05-04T18:44:00.983Z,16.90
2023-05-04T18:46:50.052Z,16.80
2023-05-04T18:49:37.263Z,16.70
2023-05-04T18:52:25.371Z,16.60
2023-05-04T18:55:13.090Z,16.50
2023-05-04T18:58:01.615Z,16.50
2023-05-04T19:00:48.783Z,16.40
2023-05-04T19:03:38.632Z,16.40
2023-05-04T19:06:26.157Z,16.30
2023-05-04T19:09:14.989Z,16.30
2023-05-04T19:12:03.910Z,16.20
2023-05-04T19:14:52.239Z,16.10
2023-05-04T19:17:39.530Z,16.10
2023-05-04T19:20:29.039Z,16.00
2023-05-04T19:23:16.366Z,16.00
2023-05-04T19:26:04.253Z,15.90
2023-05-04T19:28:51.484Z,15.90
2023-05-04T19:31:38.840Z,15.80
2023-05-04T19:34:25.906Z,15.80
2023-05-04T19:37:15.400Z,15.70
2023-05-04T19:40:03.329Z,15.60
2023-05-04T19:42:51.533Z,15.60
2023-05-04T19:45:39.177Z,15.50
2023-05-04T19:48:27.390Z,15.50
2023-05-04T19:51:14.666Z,15.40
2023-05-04T19:54:04.196Z,15.30
2023-05-04T19:56:51.341Z,15.30
2023-05-04T19:59:39.548Z,15.20
2023-05-04T20:02:27.157Z,15.20
2023-05-04T20:05:15.444Z,15.20
2023-05-04T20:08:05.003Z,15.10
2023-05-04T20:10:54.852Z,15.10
2023-05-04T20:13:42.800Z,15.00
2023-05-04T20:16:31.314Z,14.90
2023-05-04T20:19:18.600Z,14.80
2023-05-04T20:22:06.913Z,14.80
2023-05-04T20:24:54.819Z,14.70
2023-05-04T20:27:44.096Z,14.70
2023-05-04T20:30:31.470Z,14.60
2023-05-04T20:33:18.687Z,14.60
2023-05-04T20:36:07.159Z,14.50
2023-05-04T20:38:54.987Z,14.50
2023-05-04T20:41:42.147Z,14.40
2023-05-04T20:44:31.213Z,14.40
2023-05-04T20:47:18.665Z,14.40
2023-05-04T20:50:08.524Z,14.30
2023-05-04T20:52:55.783Z,14.30
2023-05-04T20:55:44.035Z,14.20
2023-05-04T20:58:31.261Z,14.20
2023-05-04T21:01:20.790Z,14.10
2023-05-04T21:04:08.433Z,14.10
2023-05-04T21:06:56.866Z,14.10
2023-05-04T21:09:45.055Z,14.00
2023-05-04T21:12:32.282Z,14.00
2023-05-04T21:15:20.456Z,13.90
2023-05-04T21:18:09.074Z,13.90
2023-05-04T21:20:57.156Z,13.90
2023-05-04T21:23:44.380Z,13.90
2023-05-04T21:26:32.445Z,13.70
2023-05-04T21:29:19.593Z,13.70
2023-05-04T21:32:06.938Z,13.60
2023-05-04T21:34:55.710Z,13.60
2023-05-04T21:37:43.108Z,13.50
2023-05-04T21:40:31.067Z,13.50
2023-05-04T21:43:18.261Z,13.40
2023-05-04T21:46:07.337Z,13.40
2023-05-04T21:48:55.054Z,13.30
2023-05-04T21:51:44.192Z,13.30
2023-05-04T21:54:31.959Z,13.20
2023-05-04T21:57:20.086Z,13.20
2023-05-04T22:00:12.265Z,13.20
2023-05-04T22:03:00.002Z,13.10
2023-05-04T22:05:53.816Z,13.10
2023-05-04T22:08:43.473Z,13.00
2023-05-04T22:11:31.239Z,12.90
2023-05-04T22:14:19.190Z,12.90
2023-05-04T22:17:07.003Z,12.90
2023-05-04T22:19:54.157Z,12.80
2023-05-04T22:22:42.256Z,12.80
2023-05-04T22:25:31.010Z,12.80
2023-05-04T22:28:19.177Z,12.80
2023-05-04T22:31:06.645Z,12.70
2023-05-04T22:33:54.770Z,12.60
2023-05-04T22:36:42.893Z,12.70
2023-05-04T22:39:30.067Z,12.70
2023-05-04T22:42:19.477Z,12.60
2023-05-04T22:45:07.619Z,12.60
2023-05-04T22:47:56.280Z,12.60
2023-05-04T22:50:43.556Z,12.50
2023-05-04T22:53:31.830Z,12.50
2023-05-04T22:56:19.074Z,12.50
2023-05-04T22:59:08.263Z,12.40
2023-05-04T23:01:55.629Z,12.40
2023-05-04T23:04:44.369Z,12.30
2023-05-04T23:07:31.627Z,12.30
2023-05-04T23:10:19.978Z,12.30
2023-05-04T23:13:07.220Z,12.30
2023-05-04T23:15:56.858Z,12.30
2023-05-04T23:18:44.484Z,12.30
2023-05-04T23:21:31.928Z,12.30
2023-05-04T23:24:19.607Z,12.20
2023-05-04T23:27:06.984Z,12.20
2023-05-04T23:29:55.204Z,12.20
2023-05-04T23:32:43.911Z,12.20
2023-05-04T23:35:32.078Z,12.10
2023-05-04T23:38:19.258Z,12.00
2023-05-04T23:41:07.416Z,11.80
2023-05-04T23:43:54.639Z,11.70
2023-05-04T23:46:42.766Z,11.60
2023-05-04T23:49:31.366Z,11.50
2023-05-04T23:52:19.142Z,11.40
2023-05-04T23:55:06.689Z,11.30
2023-05-04T23:57:54.844Z,11.30
